Rechercher aéroport 
image banner adimage banner adimage banner ad
image banner ad

CL86 - Santa Clara Towers

Situé à Santa Clara, United States

ICAO - CL86, IATA -

Données fournies par Airmate  

Information générale

Coordonnées: N37°23'8" W121°58'21"
Élévation : 201 feet MSL.
Variation magnétique : 16° East
Voir autres Aéroports à California

Données opérationnelles

Special qualification required
Heure actuelle UTC:
Heure actuelle locale:
METAR: KSJC 262353Z 32011KT 10SM FEW070 FEW100 BKN250 24/14 A2989 RMK AO2 SLP120 T02440139 10278 20206 56004
TAF: KSJC 262340Z 2700/2724 31011KT P6SM BKN200 FM270300 32006KT P6SM SCT050 BKN200 FM270900 VRB04KT P6SM VCSH BKN100 BKN200 FM271200 VRB03KT P6SM VCSH SCT015 OVC100 FM271600 VRB04KT P6SM FEW015 BKN100 FM272100 31009KT P6SM SCT200
Voir NOTAMs / SUP AIP / TFR affectant cet aéroport [VIEW]
Fréquences de communication: [VIEW]

Pistes:

Coordonnées de l'aéroport

Adresse: Santa Clara United States

Vue satellite de CL86